Time;durP1;ratioP1;P1;durP2;ratioP2;P2;SDS_P1;SDS_P2;PMS_P1;PMS_P2;Temp;Humidity;BMP_temperature;BMP_pressure;BME280_temperature;BME280_humidity;BME280_pressure;Samples;Min_cycle;Max_cycle;Signal;HPM_P1;HPM_P2
2023/06/17 00:02:00;;;;;;;11.00;9.95;;;15.70;77.10;;;;;;5070559;28;19999;-55
2023/06/17 00:04:25;;;;;;;14.05;10.18;;;15.70;76.90;;;;;;5108664;28;20164;-56
2023/06/17 00:06:51;;;;;;;13.50;9.52;;;15.60;77.10;;;;;;5107945;28;20490;-55
2023/06/17 00:09:17;;;;;;;12.02;9.93;;;15.70;77.30;;;;;;5111089;28;20123;-54
2023/06/17 00:11:42;;;;;;;11.75;10.50;;;15.70;78.00;;;;;;5096168;28;20189;-55
2023/06/17 00:14:08;;;;;;;12.57;10.77;;;15.60;78.10;;;;;;5090151;28;20421;-57
2023/06/17 00:16:36;;;;;;;11.10;10.00;;;15.60;78.30;;;;;;5090986;28;20039;-56
2023/06/17 00:19:04;;;;;;;12.55;11.25;;;15.60;78.60;;;;;;5090491;28;20093;-58
2023/06/17 00:21:30;;;;;;;12.13;10.90;;;15.60;78.80;;;;;;5089209;28;20044;-54
2023/06/17 00:23:55;;;;;;;13.15;10.98;;;15.60;78.90;;;;;;5090208;28;20059;-55
2023/06/17 00:26:21;;;;;;;16.08;11.73;;;15.60;79.30;;;;;;5092981;28;20044;-57
2023/06/17 00:28:47;;;;;;;14.02;12.63;;;15.50;79.20;;;;;;5088281;28;20028;-58
2023/06/17 00:31:12;;;;;;;12.68;11.48;;;15.40;79.50;;;;;;5086957;28;20074;-55
2023/06/17 00:33:38;;;;;;;15.07;11.82;;;15.40;79.60;;;;;;5087673;28;20064;-53
2023/06/17 00:36:04;;;;;;;13.32;11.40;;;15.40;79.70;;;;;;5090984;28;20565;-55
2023/06/17 00:38:30;;;;;;;12.10;10.80;;;15.40;80.20;;;;;;5090104;28;20035;-57
2023/06/17 00:40:56;;;;;;;15.95;12.00;;;15.40;80.50;;;;;;5090419;28;20032;-56
2023/06/17 00:43:21;;;;;;;13.60;12.05;;;15.40;80.50;;;;;;5089463;28;20040;-56
2023/06/17 00:45:47;;;;;;;17.10;12.00;;;15.40;80.60;;;;;;5090752;28;20044;-58
2023/06/17 00:48:13;;;;;;;15.75;12.30;;;15.40;81.00;;;;;;5089721;28;20449;-53
2023/06/17 00:50:39;;;;;;;;;;;15.40;81.10;;;;;;5091336;28;20043;-54
2023/06/17 00:53:06;;;;;;;13.77;11.52;;;15.40;82.00;;;;;;5089933;28;20297;-58
2023/06/17 00:55:32;;;;;;;17.58;13.02;;;15.40;81.50;;;;;;5090498;28;20477;-54
2023/06/17 00:57:59;;;;;;;14.90;11.85;;;15.40;81.80;;;;;;5088761;28;20508;-59
2023/06/17 01:00:25;;;;;;;14.30;11.88;;;15.40;82.30;;;;;;5072520;28;20415;-57
2023/06/17 01:02:50;;;;;;;15.07;12.48;;;15.30;82.30;;;;;;5090181;28;20038;-55
2023/06/17 01:05:17;;;;;;;14.73;12.68;;;15.30;83.10;;;;;;5089933;28;20036;-54
2023/06/17 01:07:58;;;;;;;18.88;12.57;;;15.30;83.10;;;;;;5089604;28;20048;-55
2023/06/17 01:10:41;;;;;;;15.43;12.82;;;15.30;83.30;;;;;;5089884;28;20040;-59
2023/06/17 01:13:07;;;;;;;14.13;12.40;;;15.30;83.60;;;;;;5089904;28;20046;-58
2023/06/17 01:15:36;;;;;;;14.30;12.55;;;15.20;83.20;;;;;;5090156;28;20082;-57
2023/06/17 01:18:04;;;;;;;14.20;12.02;;;15.20;82.50;;;;;;5089534;28;20115;-57
2023/06/17 01:20:32;;;;;;;20.38;13.07;;;15.10;82.70;;;;;;5090140;28;20039;-58
2023/06/17 01:22:59;;;;;;;16.52;12.75;;;15.10;83.20;;;;;;5089233;28;20374;-59
2023/06/17 01:25:30;;;;;;;16.73;12.60;;;15.10;83.50;;;;;;5089450;28;20097;-57
2023/06/17 01:28:15;;;;;;;14.93;13.52;;;15.00;83.50;;;;;;5089574;28;20058;-57
2023/06/17 01:30:41;;;;;;;16.20;13.35;;;15.00;84.40;;;;;;5089957;28;20132;-57
2023/06/17 01:33:07;;;;;;;14.32;12.93;;;14.90;84.10;;;;;;5089332;28;20489;-57
2023/06/17 01:35:34;;;;;;;19.13;12.88;;;14.90;84.20;;;;;;5089315;28;20047;-56
2023/06/17 01:38:22;;;;;;;18.77;13.20;;;14.80;84.90;;;;;;5089262;28;20477;-56
2023/06/17 01:40:57;;;;;;;13.40;11.75;;;14.70;85.40;;;;;;5058953;28;20054;-56
2023/06/17 01:43:26;;;;;;;14.52;13.02;;;14.60;85.70;;;;;;5089169;28;20408;-59
2023/06/17 01:45:54;;;;;;;16.48;12.48;;;14.60;86.60;;;;;;5089305;28;20044;-56
2023/06/17 01:48:19;;;;;;;13.90;12.55;;;14.50;87.10;;;;;;5089417;28;20044;-55
2023/06/17 01:50:45;;;;;;;19.10;13.80;;;14.50;87.00;;;;;;5089304;28;20118;-55
2023/06/17 01:53:11;;;;;;;13.77;12.48;;;14.50;87.60;;;;;;5088996;28;20485;-57
2023/06/17 01:55:37;;;;;;;14.65;13.05;;;14.40;88.80;;;;;;5087707;28;20519;-59
2023/06/17 01:58:03;;;;;;;15.07;13.35;;;14.40;89.10;;;;;;5089072;28;20078;-56
2023/06/17 02:00:29;;;;;;;15.38;13.77;;;14.40;89.60;;;;;;5088381;28;20072;-57
2023/06/17 02:02:55;;;;;;;17.58;13.82;;;14.40;90.00;;;;;;5089565;28;20754;-53
2023/06/17 02:05:20;;;;;;;19.85;15.10;;;14.40;90.40;;;;;;5089863;28;20377;-57
2023/06/17 02:07:47;;;;;;;16.70;15.10;;;14.50;91.40;;;;;;5089013;28;20109;-55
2023/06/17 02:10:13;;;;;;;17.95;15.18;;;14.50;91.80;;;;;;5092941;28;20040;-56
2023/06/17 02:12:38;;;;;;;19.50;14.93;;;14.50;92.30;;;;;;5093749;28;20036;-55
2023/06/17 02:15:05;;;;;;;19.67;14.85;;;14.50;93.20;;;;;;5092705;28;20111;-56
2023/06/17 02:17:32;;;;;;;;;;;14.60;94.00;;;;;;5093504;28;20055;-55
2023/06/17 02:19:57;;;;;;;16.85;14.15;;;14.70;95.80;;;;;;5093623;28;19916;-56
2023/06/17 02:22:23;;;;;;;20.20;14.93;;;14.70;95.30;;;;;;5093390;28;20032;-54
2023/06/17 02:24:49;;;;;;;19.00;15.63;;;14.70;95.50;;;;;;5092951;28;20557;-57
2023/06/17 02:27:16;;;;;;;20.42;15.82;;;14.80;95.50;;;;;;5093031;28;20044;-57
2023/06/17 02:29:42;;;;;;;20.13;15.90;;;14.80;95.90;;;;;;5092392;28;20044;-58
2023/06/17 02:32:07;;;;;;;16.83;14.93;;;14.80;95.90;;;;;;5093159;28;20028;-55
2023/06/17 02:34:33;;;;;;;17.35;15.60;;;14.90;96.00;;;;;;5092887;28;20032;-56
2023/06/17 02:36:59;;;;;;;16.33;14.35;;;14.90;95.90;;;;;;5093353;28;20043;-58
2023/06/17 02:39:25;;;;;;;19.70;16.88;;;14.90;95.90;;;;;;5092218;28;20075;-56
2023/06/17 02:41:50;;;;;;;18.83;15.88;;;14.90;96.10;;;;;;5093047;28;20028;-56
2023/06/17 02:44:16;;;;;;;19.52;16.75;;;14.90;96.20;;;;;;5091819;28;20073;-56
2023/06/17 02:46:41;;;;;;;18.13;16.35;;;14.90;96.20;;;;;;5092165;28;20476;-56
2023/06/17 02:49:07;;;;;;;22.65;16.50;;;14.90;96.40;;;;;;5091621;28;20039;-58
2023/06/17 02:51:34;;;;;;;32.17;18.60;;;15.00;97.00;;;;;;5093312;28;20051;-57
2023/06/17 02:53:59;;;;;;;33.42;19.58;;;15.00;97.60;;;;;;5092089;28;20128;-56
2023/06/17 02:56:26;;;;;;;27.08;18.80;;;15.00;98.20;;;;;;5093373;28;20085;-54
2023/06/17 02:58:52;;;;;;;27.75;20.40;;;15.00;98.70;;;;;;5091128;28;20047;-57
2023/06/17 03:01:18;;;;;;;34.20;20.85;;;15.00;99.00;;;;;;5092880;28;20039;-56
2023/06/17 03:03:44;;;;;;;39.05;21.60;;;15.10;99.30;;;;;;5091660;28;20048;-56
2023/06/17 03:06:12;;;;;;;39.55;22.65;;;15.10;99.90;;;;;;5092440;28;20369;-56
2023/06/17 03:08:40;;;;;;;42.63;25.98;;;15.20;99.90;;;;;;5091764;28;20539;-53
2023/06/17 03:11:05;;;;;;;44.63;28.08;;;15.20;99.90;;;;;;5092413;28;20400;-59
2023/06/17 03:13:31;;;;;;;39.80;26.23;;;15.20;99.90;;;;;;5091239;28;20036;-56
2023/06/17 03:15:59;;;;;;;59.47;28.65;;;15.30;99.90;;;;;;5091869;28;20105;-54
2023/06/17 03:18:25;;;;;;;47.95;28.35;;;15.30;99.90;;;;;;5091758;28;20044;-57
2023/06/17 03:20:53;;;;;;;49.00;28.30;;;15.30;99.90;;;;;;5091447;28;20172;-57
2023/06/17 03:23:20;;;;;;;47.85;28.38;;;15.30;99.90;;;;;;5092083;28;20058;-57
2023/06/17 03:25:48;;;;;;;53.10;29.95;;;15.30;99.90;;;;;;5092399;28;20044;-55
2023/06/17 03:28:14;;;;;;;48.38;26.90;;;15.20;99.90;;;;;;5091272;28;20079;-57
2023/06/17 03:30:40;;;;;;;34.70;26.48;;;15.20;99.90;;;;;;5092344;28;20036;-59
2023/06/17 03:33:06;;;;;;;33.85;24.02;;;15.20;99.90;;;;;;5091561;28;20101;-59
2023/06/17 03:35:33;;;;;;;39.55;26.77;;;15.20;99.90;;;;;;5091937;28;20127;-58
2023/06/17 03:37:59;;;;;;;38.00;26.52;;;15.20;99.90;;;;;;5091478;28;20443;-54
2023/06/17 03:40:24;;;;;;;41.63;26.75;;;15.20;99.90;;;;;;5091500;28;20088;-59
2023/06/17 03:42:50;;;;;;;84.40;28.23;;;15.20;99.90;;;;;;5091502;28;20101;-59
2023/06/17 03:45:16;;;;;;;42.70;28.90;;;15.20;99.90;;;;;;5091525;28;20039;-57
2023/06/17 03:47:41;;;;;;;64.95;26.48;;;15.20;99.90;;;;;;5091289;28;20039;-56
2023/06/17 03:50:08;;;;;;;47.00;24.98;;;15.10;99.90;;;;;;5089629;28;20032;-54
2023/06/17 03:52:33;;;;;;;38.65;23.42;;;15.10;99.90;;;;;;5091551;28;20032;-55
2023/06/17 03:54:59;;;;;;;35.22;24.23;;;15.10;99.90;;;;;;5091246;28;20168;-55
2023/06/17 03:57:25;;;;;;;42.28;25.48;;;15.10;99.90;;;;;;5090978;28;20413;-57
2023/06/17 03:59:51;;;;;;;41.67;22.33;;;15.00;99.90;;;;;;5091423;28;20550;-57
2023/06/17 04:02:17;;;;;;;32.28;23.15;;;15.00;99.90;;;;;;5091547;28;20123;-59
2023/06/17 04:04:42;;;;;;;28.27;21.95;;;15.00;99.90;;;;;;5090893;28;20708;-55
2023/06/17 04:07:08;;;;;;;29.48;22.83;;;15.10;99.90;;;;;;5090995;28;20040;-53
2023/06/17 04:09:33;;;;;;;31.38;23.50;;;15.10;99.90;;;;;;5090468;28;20024;-58
2023/06/17 04:12:00;;;;;;;36.70;23.55;;;15.10;99.90;;;;;;5091040;28;20043;-57
2023/06/17 04:14:25;;;;;;;27.35;22.65;;;15.10;99.90;;;;;;5090659;28;20091;-58
2023/06/17 04:16:51;;;;;;;32.28;22.23;;;15.10;99.90;;;;;;5090912;28;20125;-57
2023/06/17 04:19:17;;;;;;;24.92;21.55;;;15.10;99.90;;;;;;5090519;28;20364;-55
2023/06/17 04:21:43;;;;;;;;;;;15.10;99.90;;;;;;5091871;28;20046;-57
2023/06/17 04:24:09;;;;;;;26.33;21.30;;;15.10;99.90;;;;;;5089564;28;20123;-54
2023/06/17 04:26:35;;;;;;;23.63;19.40;;;15.10;99.90;;;;;;5089679;28;20047;-54
2023/06/17 04:29:00;;;;;;;21.58;19.33;;;15.10;99.90;;;;;;5089915;28;20524;-55
2023/06/17 04:31:29;;;;;;;25.73;20.13;;;15.20;99.90;;;;;;5089431;28;20036;-57
2023/06/17 04:33:55;;;;;;;23.88;20.40;;;15.10;99.90;;;;;;5089704;28;20516;-57
2023/06/17 04:36:23;;;;;;;23.20;20.80;;;15.20;99.90;;;;;;5090574;28;20040;-55
2023/06/17 04:38:49;;;;;;;31.75;22.48;;;15.20;99.90;;;;;;5090033;28;20058;-58
2023/06/17 04:41:16;;;;;;;25.25;20.52;;;15.20;99.90;;;;;;5090662;28;20048;-56
2023/06/17 04:43:45;;;;;;;;;;;15.20;99.90;;;;;;5090416;28;20111;-55
2023/06/17 04:46:12;;;;;;;29.85;21.75;;;15.20;99.90;;;;;;5089880;28;19934;-56
2023/06/17 04:48:38;;;;;;;31.90;23.05;;;15.20;99.90;;;;;;5089927;28;20043;-57
2023/06/17 04:51:05;;;;;;;;;;;15.20;99.90;;;;;;5089795;28;20115;-57
2023/06/17 04:53:31;;;;;;;35.90;24.80;;;15.20;99.90;;;;;;5089474;28;19915;-55
2023/06/17 04:55:57;;;;;;;35.75;25.23;;;15.20;99.90;;;;;;5090657;28;20512;-57
2023/06/17 04:58:22;;;;;;;29.08;22.90;;;15.10;99.90;;;;;;5090187;28;20047;-58
2023/06/17 05:00:48;;;;;;;30.30;22.90;;;15.20;99.90;;;;;;5090513;28;20094;-56
2023/06/17 05:03:13;;;;;;;27.30;22.92;;;15.20;99.90;;;;;;5085793;28;20059;-56
2023/06/17 05:05:39;;;;;;;25.80;22.17;;;15.20;99.90;;;;;;5090112;28;20044;-56
2023/06/17 05:08:05;;;;;;;30.92;24.60;;;15.20;99.90;;;;;;5089835;28;20081;-57
2023/06/17 05:10:30;;;;;;;32.03;24.33;;;15.20;99.90;;;;;;5090088;28;20082;-58
2023/06/17 05:12:56;;;;;;;32.05;25.55;;;15.20;99.90;;;;;;5090208;28;20032;-58
2023/06/17 05:15:22;;;;;;;23.95;20.15;;;15.20;99.90;;;;;;5089860;28;20127;-56
2023/06/17 05:17:47;;;;;;;22.15;18.80;;;15.20;99.90;;;;;;5089713;28;20088;-57
2023/06/17 05:20:13;;;;;;;22.65;19.80;;;15.30;99.90;;;;;;5089842;28;20040;-59
2023/06/17 05:22:38;;;;;;;22.15;19.70;;;15.30;99.90;;;;;;5089589;28;20086;-55
2023/06/17 05:25:04;;;;;;;27.25;20.38;;;15.30;99.90;;;;;;5089714;28;20036;-56
2023/06/17 05:27:30;;;;;;;;;;;15.30;99.90;;;;;;5089264;28;20028;-54
2023/06/17 05:29:55;;;;;;;21.13;17.10;;;15.40;99.90;;;;;;5090003;28;19931;-53
2023/06/17 05:32:22;;;;;;;20.52;18.05;;;15.40;99.90;;;;;;5089760;28;20068;-59
2023/06/17 05:34:48;;;;;;;19.52;17.25;;;15.40;99.90;;;;;;5069390;28;20041;-56
2023/06/17 05:37:14;;;;;;;22.13;18.40;;;15.40;99.90;;;;;;5069564;28;20110;-56
2023/06/17 05:39:40;;;;;;;20.42;18.25;;;15.40;99.90;;;;;;5069061;28;20041;-57
2023/06/17 05:42:06;;;;;;;22.20;19.65;;;15.40;99.90;;;;;;5069672;28;20124;-58
2023/06/17 05:44:31;;;;;;;23.00;20.20;;;15.40;99.90;;;;;;5068006;28;20047;-59
2023/06/17 05:46:57;;;;;;;23.08;19.85;;;15.40;99.90;;;;;;5090029;28;20079;-56
2023/06/17 05:49:22;;;;;;;25.42;20.13;;;15.50;99.90;;;;;;5089223;28;20052;-53
2023/06/17 05:51:48;;;;;;;26.52;20.77;;;15.50;99.90;;;;;;5088060;28;20044;-55
2023/06/17 05:54:14;;;;;;;23.35;20.17;;;15.60;99.90;;;;;;5089459;28;20036;-55
2023/06/17 05:56:39;;;;;;;23.02;19.70;;;15.60;99.90;;;;;;5089691;28;20411;-55
2023/06/17 05:59:06;;;;;;;24.73;20.55;;;15.60;99.90;;;;;;5086685;28;20494;-55
2023/06/17 06:01:31;;;;;;;;;;;15.70;99.90;;;;;;5089492;28;20489;-55
2023/06/17 06:03:57;;;;;;;21.95;19.60;;;15.80;99.90;;;;;;5088771;28;19923;-57
2023/06/17 06:06:22;;;;;;;23.67;20.30;;;15.80;99.90;;;;;;5089164;28;20439;-56
2023/06/17 06:08:48;;;;;;;22.13;19.25;;;15.80;99.90;;;;;;5088458;28;20036;-53
2023/06/17 06:11:14;;;;;;;26.45;21.42;;;15.90;99.90;;;;;;5089910;28;20400;-56
2023/06/17 06:13:40;;;;;;;23.02;17.85;;;15.90;99.90;;;;;;5088173;28;20107;-54
2023/06/17 06:16:05;;;;;;;23.02;19.38;;;15.90;99.90;;;;;;5089585;28;20115;-52
2023/06/17 06:18:31;;;;;;;22.67;20.27;;;15.90;99.90;;;;;;5088771;28;20150;-56
2023/06/17 06:20:56;;;;;;;26.05;20.05;;;16.00;99.90;;;;;;5088970;28;20036;-54
2023/06/17 06:23:22;;;;;;;26.55;22.98;;;16.00;99.90;;;;;;5088515;28;20424;-53
2023/06/17 06:25:48;;;;;;;23.27;20.73;;;16.00;99.90;;;;;;5089392;28;20489;-55
2023/06/17 06:28:13;;;;;;;30.02;21.88;;;16.00;99.90;;;;;;5088553;28;20040;-55
2023/06/17 06:30:39;;;;;;;27.17;22.02;;;16.00;99.90;;;;;;5089676;28;20481;-56
2023/06/17 06:33:04;;;;;;;29.60;22.70;;;16.10;99.90;;;;;;5088425;28;20078;-55
2023/06/17 06:35:30;;;;;;;27.75;21.02;;;16.10;99.90;;;;;;5089061;28;20044;-53
2023/06/17 06:37:56;;;;;;;25.10;21.17;;;16.10;99.90;;;;;;5088520;28;20039;-54
2023/06/17 06:40:21;;;;;;;21.65;19.25;;;16.10;99.90;;;;;;5089195;28;20412;-56
2023/06/17 06:42:47;;;;;;;25.17;21.52;;;16.10;99.90;;;;;;5088831;28;20035;-52
2023/06/17 06:45:12;;;;;;;27.27;22.20;;;16.20;99.90;;;;;;5088758;28;20044;-56
2023/06/17 06:47:38;;;;;;;33.78;23.38;;;16.20;99.90;;;;;;5086952;28;20040;-51
2023/06/17 06:50:04;;;;;;;24.05;21.05;;;16.20;99.90;;;;;;5088601;28;20116;-54
2023/06/17 06:52:30;;;;;;;21.50;18.15;;;16.30;99.90;;;;;;5089224;28;20040;-56
2023/06/17 06:54:55;;;;;;;22.05;18.67;;;16.30;99.90;;;;;;5089245;28;20036;-55
2023/06/17 06:57:21;;;;;;;21.45;19.05;;;16.40;99.90;;;;;;5092529;28;20130;-56
2023/06/17 06:59:46;;;;;;;21.40;16.15;;;16.40;99.90;;;;;;5092405;28;20131;-54
2023/06/17 07:02:12;;;;;;;21.17;18.95;;;16.50;99.90;;;;;;5092661;28;20036;-54
2023/06/17 07:04:38;;;;;;;21.52;18.90;;;16.50;99.90;;;;;;5091561;28;20040;-56
2023/06/17 07:07:04;;;;;;;22.20;17.88;;;16.60;99.90;;;;;;5092261;28;20451;-53
2023/06/17 07:09:29;;;;;;;20.17;17.65;;;16.60;99.90;;;;;;5091895;28;20078;-57
2023/06/17 07:11:55;;;;;;;22.25;19.13;;;16.70;99.90;;;;;;5092608;28;20609;-52
2023/06/17 07:14:21;;;;;;;25.00;19.55;;;16.70;99.90;;;;;;5091645;28;20039;-54
2023/06/17 07:16:46;;;;;;;21.38;19.17;;;16.80;99.90;;;;;;5091736;28;20035;-58
2023/06/17 07:19:12;;;;;;;25.05;19.13;;;16.80;99.90;;;;;;5090705;28;20047;-57
2023/06/17 07:21:37;;;;;;;22.15;19.13;;;16.80;99.90;;;;;;5092703;28;20078;-52
2023/06/17 07:24:03;;;;;;;21.02;17.38;;;16.90;99.90;;;;;;5091901;28;20408;-52
2023/06/17 07:26:29;;;;;;;22.02;18.88;;;16.90;99.90;;;;;;5092377;28;20044;-55
2023/06/17 07:28:55;;;;;;;21.17;19.08;;;17.10;99.90;;;;;;5091773;28;20051;-57
2023/06/17 07:31:22;;;;;;;19.90;17.85;;;17.10;99.90;;;;;;5091054;28;20404;-56
2023/06/17 07:33:48;;;;;;;22.58;18.80;;;17.20;99.90;;;;;;5090815;28;20047;-54
2023/06/17 07:36:13;;;;;;;28.45;20.65;;;17.30;99.90;;;;;;5092643;28;20040;-53
2023/06/17 07:38:39;;;;;;;21.33;18.95;;;17.40;99.90;;;;;;5091719;28;20043;-58
2023/06/17 07:41:04;;;;;;;25.52;19.17;;;17.50;99.90;;;;;;5092211;28;20398;-52
2023/06/17 07:43:30;;;;;;;24.73;20.23;;;17.60;99.90;;;;;;5091245;28;20039;-52
2023/06/17 07:45:56;;;;;;;23.02;18.35;;;17.70;99.90;;;;;;5091768;28;20102;-54
2023/06/17 07:48:22;;;;;;;27.27;17.55;;;17.80;99.90;;;;;;5091325;28;20130;-51
2023/06/17 07:50:48;;;;;;;26.45;18.85;;;18.00;99.90;;;;;;5091122;28;20154;-53
2023/06/17 07:53:13;;;;;;;21.40;18.55;;;18.10;99.90;;;;;;5090736;28;20110;-58
2023/06/17 07:55:39;;;;;;;25.20;18.88;;;18.20;99.90;;;;;;5091821;28;20477;-50
2023/06/17 07:58:04;;;;;;;;;;;18.30;99.90;;;;;;5091299;28;20051;-52
2023/06/17 08:00:30;;;;;;;21.95;17.67;;;18.30;99.90;;;;;;5091275;28;19916;-54
2023/06/17 08:02:56;;;;;;;;;;;18.20;99.90;;;;;;5091262;28;20032;-56
2023/06/17 08:05:21;;;;;;;22.15;18.88;;;18.30;99.90;;;;;;5090557;28;19973;-52
2023/06/17 08:07:47;;;;;;;21.30;17.90;;;18.40;99.90;;;;;;5090799;28;20047;-56
2023/06/17 08:10:13;;;;;;;20.88;18.55;;;18.40;99.90;;;;;;5091170;28;20043;-57
2023/06/17 08:12:38;;;;;;;28.65;19.95;;;18.40;99.90;;;;;;5090754;28;20036;-56
2023/06/17 08:15:05;;;;;;;25.52;19.52;;;18.60;99.90;;;;;;5090622;28;20032;-57
2023/06/17 08:17:31;;;;;;;25.20;18.15;;;18.60;99.90;;;;;;5090084;28;20047;-57
2023/06/17 08:19:56;;;;;;;23.40;18.75;;;18.80;99.90;;;;;;5091109;28;20043;-54
2023/06/17 08:22:22;;;;;;;26.92;21.17;;;18.90;99.90;;;;;;5089205;28;20040;-53
2023/06/17 08:24:47;;;;;;;;;;;19.00;99.90;;;;;;5091257;28;20204;-53
2023/06/17 08:27:13;;;;;;;23.38;17.27;;;19.10;99.90;;;;;;5090527;28;19923;-56
2023/06/17 08:29:39;;;;;;;;;;;19.10;99.90;;;;;;5089651;28;20032;-57
2023/06/17 08:32:05;;;;;;;28.33;19.35;;;19.20;99.90;;;;;;5090069;28;20332;-56
2023/06/17 08:34:32;;;;;;;30.23;18.33;;;19.30;99.90;;;;;;5087572;28;20032;-56
2023/06/17 08:37:03;;;;;;;27.55;17.92;;;19.30;99.90;;;;;;5089392;28;20085;-54
2023/06/17 08:39:32;;;;;;;21.85;17.92;;;19.50;99.90;;;;;;5089163;28;20409;-57
2023/06/17 08:41:58;;;;;;;24.00;18.05;;;19.60;99.90;;;;;;5089165;28;20273;-55
2023/06/17 08:44:26;;;;;;;20.38;17.10;;;19.60;99.60;;;;;;5088927;28;20454;-54
2023/06/17 08:46:53;;;;;;;20.55;17.95;;;19.60;99.60;;;;;;5089945;28;20047;-56
2023/06/17 08:49:20;;;;;;;27.30;19.15;;;19.70;99.90;;;;;;5089264;28;20047;-55
2023/06/17 08:51:49;;;;;;;25.05;18.20;;;19.80;99.90;;;;;;5090790;28;20058;-58
2023/06/17 08:54:15;;;;;;;22.17;18.70;;;20.00;99.90;;;;;;5089667;28;20127;-56
2023/06/17 08:56:41;;;;;;;;;;;20.00;99.20;;;;;;5091105;28;20044;-57
2023/06/17 08:59:07;;;;;;;23.80;18.73;;;20.10;99.10;;;;;;5089924;28;20278;-60
2023/06/17 09:01:34;;;;;;;;;;;20.10;99.40;;;;;;5091268;28;20127;-57
2023/06/17 09:04:01;;;;;;;28.13;17.85;;;20.20;99.70;;;;;;5089835;28;19916;-54
2023/06/17 09:06:28;;;;;;;21.95;17.40;;;20.30;99.50;;;;;;5089034;28;20051;-57
2023/06/17 09:08:57;;;;;;;21.08;17.50;;;20.40;98.70;;;;;;5089465;28;20050;-57
2023/06/17 09:11:28;;;;;;;22.38;17.05;;;20.40;98.20;;;;;;5090197;28;20269;-53
2023/06/17 09:13:56;;;;;;;17.42;15.48;;;20.50;98.10;;;;;;5088803;28;20388;-56
2023/06/17 09:16:31;;;;;;;18.15;16.27;;;20.60;98.10;;;;;;5090653;28;20079;-56
2023/06/17 09:19:02;;;;;;;21.73;17.50;;;20.80;97.80;;;;;;5085582;28;20058;-55
2023/06/17 09:21:28;;;;;;;21.45;18.40;;;20.80;97.80;;;;;;5090233;28;20036;-61
2023/06/17 09:23:54;;;;;;;;;;;20.80;98.50;;;;;;5094315;28;20056;-61
2023/06/17 09:26:28;;;;;;;17.88;15.75;;;20.90;98.10;;;;;;5081810;28;19920;-59
2023/06/17 09:28:58;;;;;;;26.10;16.77;;;21.00;98.30;;;;;;5088425;28;20128;-58
2023/06/17 09:31:25;;;;;;;24.95;17.02;;;21.10;97.90;;;;;;5089724;28;20127;-58
2023/06/17 09:33:50;;;;;;;20.92;16.73;;;21.10;97.40;;;;;;5089390;28;20401;-60
2023/06/17 09:36:17;;;;;;;;;;;21.20;97.30;;;;;;5090418;28;20250;-58
2023/06/17 09:38:43;;;;;;;18.70;14.73;;;21.20;97.00;;;;;;5087639;28;19920;-58
2023/06/17 09:41:13;;;;;;;;;;;21.30;96.90;;;;;;5089755;28;20048;-60
2023/06/17 09:43:40;;;;;;;23.25;17.20;;;21.40;96.20;;;;;;5089102;28;19967;-60
2023/06/17 09:46:06;;;;;;;19.02;16.63;;;21.50;96.50;;;;;;5089370;28;20036;-61
2023/06/17 09:48:37;;;;;;;21.38;17.08;;;21.60;96.70;;;;;;5088369;28;20477;-59
2023/06/17 09:51:09;;;;;;;29.52;16.48;;;21.70;96.20;;;;;;5088346;28;20070;-57
2023/06/17 09:53:36;;;;;;;21.23;16.38;;;21.80;96.00;;;;;;5088462;28;20063;-58
2023/06/17 09:56:02;;;;;;;19.83;15.98;;;21.90;95.40;;;;;;5089928;28;20502;-61
2023/06/17 09:58:30;;;;;;;18.48;16.60;;;21.90;95.40;;;;;;5088831;28;20032;-61
2023/06/17 10:01:00;;;;;;;16.20;14.63;;;22.00;95.10;;;;;;5089803;28;20028;-55
2023/06/17 10:03:27;;;;;;;20.17;15.80;;;22.00;95.00;;;;;;5088667;28;20432;-57
2023/06/17 10:05:58;;;;;;;19.33;14.82;;;22.10;95.70;;;;;;5089234;28;20036;-56
2023/06/17 10:08:24;;;;;;;14.93;13.52;;;22.10;95.10;;;;;;5088825;28;20044;-56
2023/06/17 10:10:51;;;;;;;22.17;14.60;;;22.10;95.10;;;;;;5089891;28;20048;-53
2023/06/17 10:13:20;;;;;;;16.92;14.55;;;22.10;95.60;;;;;;5088436;28;20043;-52
2023/06/17 10:15:47;;;;;;;17.20;13.57;;;22.20;94.90;;;;;;5089317;28;20047;-55
2023/06/17 10:18:14;;;;;;;20.85;15.30;;;22.30;94.70;;;;;;5088669;28;20044;-59
2023/06/17 10:20:41;;;;;;;36.67;19.20;;;22.30;94.60;;;;;;5089016;28;20063;-59
2023/06/17 10:23:06;;;;;;;22.27;15.60;;;22.40;95.10;;;;;;5088789;28;20062;-57
2023/06/17 10:25:32;;;;;;;;;;;22.40;94.90;;;;;;5089727;28;20119;-57
2023/06/17 10:28:00;;;;;;;20.50;13.85;;;22.50;94.70;;;;;;5088466;28;20430;-58
2023/06/17 10:30:27;;;;;;;28.20;15.50;;;22.60;94.80;;;;;;5090454;28;20489;-61
2023/06/17 10:33:03;;;;;;;22.85;15.85;;;22.70;94.80;;;;;;5092802;28;20392;-51
2023/06/17 10:35:43;;;;;;;15.57;13.93;;;22.80;94.80;;;;;;5091159;28;20105;-50
2023/06/17 10:38:10;;;;;;;19.10;13.25;;;22.80;95.20;;;;;;5092020;28;20512;-51
2023/06/17 10:40:47;;;;;;;18.15;13.82;;;22.90;94.10;;;;;;5092946;28;20036;-52
2023/06/17 10:43:13;;;;;;;;;;;22.90;93.30;;;;;;5092792;28;20076;-54
2023/06/17 10:45:48;;;;;;;21.27;14.67;;;22.90;93.90;;;;;;5091483;28;19916;-58
2023/06/17 10:48:24;;;;;;;18.53;12.47;;;22.90;93.80;;;;;;5091925;28;20115;-57
2023/06/17 10:51:10;;;;;;;51.00;21.80;;;22.90;93.40;;;;;;5092987;28;20646;-56
2023/06/17 10:53:36;;;;;;;16.88;10.88;;;23.00;93.30;;;;;;5092160;28;20036;-54
2023/06/17 10:56:06;;;;;;;12.50;11.25;;;23.00;93.30;;;;;;5072625;28;20149;-53
2023/06/17 10:58:35;;;;;;;19.30;11.52;;;23.10;93.10;;;;;;5090363;28;20043;-52
2023/06/17 11:01:09;;;;;;;15.95;11.90;;;23.20;93.00;;;;;;5092523;28;20579;-54
2023/06/17 11:03:36;;;;;;;18.20;12.38;;;23.30;93.00;;;;;;5092386;28;20505;-54
2023/06/17 11:06:06;;;;;;;13.30;11.95;;;23.40;92.90;;;;;;5089590;28;20513;-56
2023/06/17 11:08:34;;;;;;;14.82;11.98;;;23.50;92.50;;;;;;5090068;28;20032;-58
2023/06/17 11:11:14;;;;;;;14.70;9.77;;;23.50;92.80;;;;;;5090567;28;20420;-56
2023/06/17 11:13:42;;;;;;;16.80;10.82;;;23.60;92.40;;;;;;5090044;28;20032;-56
2023/06/17 11:16:08;;;;;;;13.13;10.75;;;23.70;92.00;;;;;;5091981;28;20059;-58
2023/06/17 11:18:41;;;;;;;12.60;9.80;;;23.70;91.50;;;;;;5088229;28;20077;-54
2023/06/17 11:21:08;;;;;;;14.00;10.02;;;23.80;91.50;;;;;;5091680;28;20039;-53
2023/06/17 11:23:36;;;;;;;10.77;9.77;;;23.90;91.80;;;;;;5091544;28;20078;-53
2023/06/17 11:26:02;;;;;;;13.93;9.43;;;24.00;91.70;;;;;;5091552;28;20390;-53
2023/06/17 11:28:30;;;;;;;10.45;9.43;;;24.00;91.30;;;;;;5091348;28;20039;-56
2023/06/17 11:30:56;;;;;;;13.35;8.07;;;24.20;91.20;;;;;;5088781;28;20051;-57
2023/06/17 11:33:22;;;;;;;15.57;9.20;;;24.30;91.30;;;;;;5090693;28;20485;-54
2023/06/17 11:35:51;;;;;;;8.13;7.03;;;24.40;91.10;;;;;;5091317;28;20432;-55
2023/06/17 11:38:17;;;;;;;9.38;8.35;;;24.50;90.60;;;;;;5088693;28;20066;-56
2023/06/17 11:40:43;;;;;;;11.98;7.72;;;24.50;90.00;;;;;;5090092;28;20054;-53
2023/06/17 11:43:09;;;;;;;8.30;7.22;;;24.50;89.00;;;;;;5093926;28;20040;-57
2023/06/17 11:45:36;;;;;;;8.65;7.45;;;24.50;88.10;;;;;;5091769;28;20036;-56
2023/06/17 11:48:06;;;;;;;11.02;7.65;;;24.70;88.40;;;;;;5090352;28;20062;-55
2023/06/17 11:50:32;;;;;;;10.05;7.20;;;24.70;87.90;;;;;;5090154;28;20485;-53
2023/06/17 11:52:58;;;;;;;9.90;5.80;;;24.70;87.30;;;;;;5091012;28;20409;-53
2023/06/17 11:55:34;;;;;;;14.30;6.82;;;24.80;87.20;;;;;;5091137;28;20044;-54
2023/06/17 11:58:02;;;;;;;11.25;6.05;;;24.80;86.20;;;;;;5091121;28;20036;-53
2023/06/17 12:00:36;;;;;;;12.30;7.43;;;24.80;85.50;;;;;;5091795;28;20399;-53
2023/06/17 12:03:03;;;;;;;12.15;7.20;;;24.90;86.00;;;;;;5091305;28;20036;-59
2023/06/17 12:05:30;;;;;;;10.95;6.82;;;24.90;85.20;;;;;;5090890;28;20043;-53
2023/06/17 12:08:00;;;;;;;8.05;6.15;;;24.90;86.40;;;;;;5091374;28;20036;-54
2023/06/17 12:10:26;;;;;;;11.57;7.03;;;25.00;85.40;;;;;;5091207;28;20063;-53
2023/06/17 12:12:56;;;;;;;7.43;6.50;;;25.10;86.20;;;;;;5091366;28;20346;-55
2023/06/17 12:15:28;;;;;;;7.85;6.20;;;25.10;85.20;;;;;;5090429;28;20122;-56
2023/06/17 12:17:54;;;;;;;11.52;6.35;;;25.20;85.20;;;;;;5090788;28;20496;-54
2023/06/17 12:20:21;;;;;;;11.23;5.97;;;25.30;85.70;;;;;;5091245;28;20035;-54
2023/06/17 12:22:51;;;;;;;10.98;5.88;;;25.50;85.40;;;;;;5090977;28;20573;-54
2023/06/17 12:25:16;;;;;;;7.40;6.20;;;25.50;85.40;;;;;;5090225;28;20396;-54
2023/06/17 12:27:42;;;;;;;6.30;5.80;;;25.60;84.50;;;;;;5089980;28;20043;-53
2023/06/17 12:30:11;;;;;;;10.23;5.40;;;25.70;83.70;;;;;;5090993;28;20036;-54
2023/06/17 12:32:39;;;;;;;9.50;6.82;;;25.80;83.70;;;;;;5090999;28;20035;-56